sensor_id;sensor_type;location;lat;lon;timestamp;temperature;humidity
16074;DHT22;8141;52.664;5.074;2023-11-21T00:01:57;17.80;66.40
16074;DHT22;8141;52.664;5.074;2023-11-21T00:04:23;17.80;66.60
16074;DHT22;8141;52.664;5.074;2023-11-21T00:06:48;17.80;66.50
16074;DHT22;8141;52.664;5.074;2023-11-21T00:09:14;17.80;66.40
16074;DHT22;8141;52.664;5.074;2023-11-21T00:11:44;17.80;66.40
16074;DHT22;8141;52.664;5.074;2023-11-21T00:14:10;17.80;66.50
16074;DHT22;8141;52.664;5.074;2023-11-21T00:16:36;17.80;66.40
16074;DHT22;8141;52.664;5.074;2023-11-21T00:19:02;17.90;66.30
16074;DHT22;8141;52.664;5.074;2023-11-21T00:21:27;17.80;66.20
16074;DHT22;8141;52.664;5.074;2023-11-21T00:23:53;17.90;66.20
16074;DHT22;8141;52.664;5.074;2023-11-21T00:26:19;17.90;66.20
16074;DHT22;8141;52.664;5.074;2023-11-21T00:28:44;17.90;66.10
16074;DHT22;8141;52.664;5.074;2023-11-21T00:31:10;17.90;66.10
16074;DHT22;8141;52.664;5.074;2023-11-21T00:33:36;18.00;66.30
16074;DHT22;8141;52.664;5.074;2023-11-21T00:36:02;18.00;66.60
16074;DHT22;8141;52.664;5.074;2023-11-21T00:38:28;18.00;66.70
16074;DHT22;8141;52.664;5.074;2023-11-21T00:40:53;18.00;66.50
16074;DHT22;8141;52.664;5.074;2023-11-21T00:43:24;18.00;66.60
16074;DHT22;8141;52.664;5.074;2023-11-21T00:45:50;18.10;66.70
16074;DHT22;8141;52.664;5.074;2023-11-21T00:48:16;18.10;66.80
16074;DHT22;8141;52.664;5.074;2023-11-21T00:50:43;18.10;66.70
16074;DHT22;8141;52.664;5.074;2023-11-21T00:53:09;18.10;66.70
16074;DHT22;8141;52.664;5.074;2023-11-21T00:55:35;18.10;66.60
16074;DHT22;8141;52.664;5.074;2023-11-21T00:58:00;18.10;66.70
16074;DHT22;8141;52.664;5.074;2023-11-21T01:00:28;18.10;66.60
16074;DHT22;8141;52.664;5.074;2023-11-21T01:02:55;18.10;66.60
16074;DHT22;8141;52.664;5.074;2023-11-21T01:05:21;18.10;66.50
16074;DHT22;8141;52.664;5.074;2023-11-21T01:07:46;18.10;66.60
16074;DHT22;8141;52.664;5.074;2023-11-21T01:10:12;18.20;66.60
16074;DHT22;8141;52.664;5.074;2023-11-21T01:12:38;18.20;66.60
16074;DHT22;8141;52.664;5.074;2023-11-21T01:15:04;18.20;66.60
16074;DHT22;8141;52.664;5.074;2023-11-21T01:17:32;18.20;66.50
16074;DHT22;8141;52.664;5.074;2023-11-21T01:19:59;18.20;66.60
16074;DHT22;8141;52.664;5.074;2023-11-21T01:22:26;18.20;66.60
16074;DHT22;8141;52.664;5.074;2023-11-21T01:24:54;18.20;66.50
16074;DHT22;8141;52.664;5.074;2023-11-21T01:27:21;18.30;66.40
16074;DHT22;8141;52.664;5.074;2023-11-21T01:29:46;18.30;66.00
16074;DHT22;8141;52.664;5.074;2023-11-21T01:32:12;18.30;66.40
16074;DHT22;8141;52.664;5.074;2023-11-21T01:34:38;18.30;66.30
16074;DHT22;8141;52.664;5.074;2023-11-21T01:37:03;18.30;66.20
16074;DHT22;8141;52.664;5.074;2023-11-21T01:39:31;18.30;66.20
16074;DHT22;8141;52.664;5.074;2023-11-21T01:41:57;18.30;66.20
16074;DHT22;8141;52.664;5.074;2023-11-21T01:44:25;18.30;66.20
16074;DHT22;8141;52.664;5.074;2023-11-21T01:46:51;18.30;66.20
16074;DHT22;8141;52.664;5.074;2023-11-21T01:49:17;18.30;66.20
16074;DHT22;8141;52.664;5.074;2023-11-21T01:51:47;18.30;66.20
16074;DHT22;8141;52.664;5.074;2023-11-21T01:54:14;18.40;66.30
16074;DHT22;8141;52.664;5.074;2023-11-21T01:56:42;18.40;66.20
16074;DHT22;8141;52.664;5.074;2023-11-21T01:59:10;18.40;66.20
16074;DHT22;8141;52.664;5.074;2023-11-21T02:01:36;18.40;66.10
16074;DHT22;8141;52.664;5.074;2023-11-21T02:04:02;18.40;66.10
16074;DHT22;8141;52.664;5.074;2023-11-21T02:06:28;18.40;66.00
16074;DHT22;8141;52.664;5.074;2023-11-21T02:08:56;18.40;66.00
16074;DHT22;8141;52.664;5.074;2023-11-21T02:11:22;18.40;66.20
16074;DHT22;8141;52.664;5.074;2023-11-21T02:13:47;18.40;66.20
16074;DHT22;8141;52.664;5.074;2023-11-21T02:16:15;18.50;66.30
16074;DHT22;8141;52.664;5.074;2023-11-21T02:18:40;18.50;66.20
16074;DHT22;8141;52.664;5.074;2023-11-21T02:21:07;18.50;66.10
16074;DHT22;8141;52.664;5.074;2023-11-21T02:23:33;18.50;66.10
16074;DHT22;8141;52.664;5.074;2023-11-21T02:25:58;18.50;66.10
16074;DHT22;8141;52.664;5.074;2023-11-21T02:28:24;18.50;66.00
16074;DHT22;8141;52.664;5.074;2023-11-21T02:30:52;18.50;66.00
16074;DHT22;8141;52.664;5.074;2023-11-21T02:33:22;18.50;66.00
16074;DHT22;8141;52.664;5.074;2023-11-21T02:35:47;18.50;66.00
16074;DHT22;8141;52.664;5.074;2023-11-21T02:38:13;18.50;66.00
16074;DHT22;8141;52.664;5.074;2023-11-21T02:40:39;18.50;66.10
16074;DHT22;8141;52.664;5.074;2023-11-21T02:43:05;18.50;66.10
16074;DHT22;8141;52.664;5.074;2023-11-21T02:45:31;18.50;66.10
16074;DHT22;8141;52.664;5.074;2023-11-21T02:47:57;18.50;66.20
16074;DHT22;8141;52.664;5.074;2023-11-21T02:50:23;18.60;66.20
16074;DHT22;8141;52.664;5.074;2023-11-21T02:52:49;18.60;66.30
16074;DHT22;8141;52.664;5.074;2023-11-21T02:55:15;18.50;66.20
16074;DHT22;8141;52.664;5.074;2023-11-21T02:57:40;18.60;66.60
16074;DHT22;8141;52.664;5.074;2023-11-21T03:00:06;18.60;66.70
16074;DHT22;8141;52.664;5.074;2023-11-21T03:02:33;18.60;66.90
16074;DHT22;8141;52.664;5.074;2023-11-21T03:05:02;18.60;67.00
16074;DHT22;8141;52.664;5.074;2023-11-21T03:07:27;18.60;67.00
16074;DHT22;8141;52.664;5.074;2023-11-21T03:09:53;18.60;66.90
16074;DHT22;8141;52.664;5.074;2023-11-21T03:12:19;18.60;67.00
16074;DHT22;8141;52.664;5.074;2023-11-21T03:14:44;18.60;67.40
16074;DHT22;8141;52.664;5.074;2023-11-21T03:17:10;18.60;67.00
16074;DHT22;8141;52.664;5.074;2023-11-21T03:19:36;18.70;67.20
16074;DHT22;8141;52.664;5.074;2023-11-21T03:22:02;18.60;67.20
16074;DHT22;8141;52.664;5.074;2023-11-21T03:24:29;18.70;67.20
16074;DHT22;8141;52.664;5.074;2023-11-21T03:26:55;18.70;67.10
16074;DHT22;8141;52.664;5.074;2023-11-21T03:29:21;18.70;67.10
16074;DHT22;8141;52.664;5.074;2023-11-21T03:31:47;18.70;67.20
16074;DHT22;8141;52.664;5.074;2023-11-21T03:34:16;18.70;67.30
16074;DHT22;8141;52.664;5.074;2023-11-21T03:36:45;18.70;67.40
16074;DHT22;8141;52.664;5.074;2023-11-21T03:39:11;18.70;67.30
16074;DHT22;8141;52.664;5.074;2023-11-21T03:41:37;18.70;67.50
16074;DHT22;8141;52.664;5.074;2023-11-21T03:44:02;18.70;67.40
16074;DHT22;8141;52.664;5.074;2023-11-21T03:46:28;18.70;67.90
16074;DHT22;8141;52.664;5.074;2023-11-21T03:48:54;18.70;67.30
16074;DHT22;8141;52.664;5.074;2023-11-21T03:51:21;18.70;67.20
16074;DHT22;8141;52.664;5.074;2023-11-21T03:53:47;18.70;67.20
16074;DHT22;8141;52.664;5.074;2023-11-21T03:56:13;18.70;67.10
16074;DHT22;8141;52.664;5.074;2023-11-21T03:58:39;18.70;67.40
16074;DHT22;8141;52.664;5.074;2023-11-21T04:01:05;18.70;67.60
16074;DHT22;8141;52.664;5.074;2023-11-21T04:03:31;18.70;67.40
16074;DHT22;8141;52.664;5.074;2023-11-21T04:05:56;18.80;67.70
16074;DHT22;8141;52.664;5.074;2023-11-21T04:08:22;18.80;67.60
16074;DHT22;8141;52.664;5.074;2023-11-21T04:10:47;18.80;67.60
16074;DHT22;8141;52.664;5.074;2023-11-21T04:13:14;18.80;67.60
16074;DHT22;8141;52.664;5.074;2023-11-21T04:15:39;18.80;67.60
16074;DHT22;8141;52.664;5.074;2023-11-21T04:18:05;18.80;67.60
16074;DHT22;8141;52.664;5.074;2023-11-21T04:20:30;18.90;67.60
16074;DHT22;8141;52.664;5.074;2023-11-21T04:22:56;18.80;67.40
16074;DHT22;8141;52.664;5.074;2023-11-21T04:25:22;18.80;67.50
16074;DHT22;8141;52.664;5.074;2023-11-21T04:27:48;18.80;67.50
16074;DHT22;8141;52.664;5.074;2023-11-21T04:30:14;18.80;67.50
16074;DHT22;8141;52.664;5.074;2023-11-21T04:32:40;18.80;67.40
16074;DHT22;8141;52.664;5.074;2023-11-21T04:35:07;18.80;67.40
16074;DHT22;8141;52.664;5.074;2023-11-21T04:37:36;18.80;67.40
16074;DHT22;8141;52.664;5.074;2023-11-21T04:40:02;18.90;67.50
16074;DHT22;8141;52.664;5.074;2023-11-21T04:42:33;18.90;67.40
16074;DHT22;8141;52.664;5.074;2023-11-21T04:45:00;18.80;67.90
16074;DHT22;8141;52.664;5.074;2023-11-21T04:47:26;18.90;68.10
16074;DHT22;8141;52.664;5.074;2023-11-21T04:49:52;18.80;68.00
16074;DHT22;8141;52.664;5.074;2023-11-21T04:52:17;18.90;68.10
16074;DHT22;8141;52.664;5.074;2023-11-21T04:54:45;18.90;68.00
16074;DHT22;8141;52.664;5.074;2023-11-21T04:57:11;18.90;68.20
16074;DHT22;8141;52.664;5.074;2023-11-21T04:59:37;18.90;68.10
16074;DHT22;8141;52.664;5.074;2023-11-21T05:02:03;18.90;68.00
16074;DHT22;8141;52.664;5.074;2023-11-21T05:04:30;18.90;68.20
16074;DHT22;8141;52.664;5.074;2023-11-21T05:06:56;18.90;68.20
16074;DHT22;8141;52.664;5.074;2023-11-21T05:09:22;18.90;68.20
16074;DHT22;8141;52.664;5.074;2023-11-21T05:11:47;18.90;68.00
16074;DHT22;8141;52.664;5.074;2023-11-21T05:14:13;18.90;67.90
16074;DHT22;8141;52.664;5.074;2023-11-21T05:16:39;18.90;68.50
16074;DHT22;8141;52.664;5.074;2023-11-21T05:19:05;18.90;67.90
16074;DHT22;8141;52.664;5.074;2023-11-21T05:21:31;18.90;67.90
16074;DHT22;8141;52.664;5.074;2023-11-21T05:23:57;18.90;67.80
16074;DHT22;8141;52.664;5.074;2023-11-21T05:26:23;18.90;67.70
16074;DHT22;8141;52.664;5.074;2023-11-21T05:28:49;18.90;67.70
16074;DHT22;8141;52.664;5.074;2023-11-21T05:31:15;18.90;68.30
16074;DHT22;8141;52.664;5.074;2023-11-21T05:33:41;18.90;68.10
16074;DHT22;8141;52.664;5.074;2023-11-21T05:36:07;18.90;67.90
16074;DHT22;8141;52.664;5.074;2023-11-21T05:38:33;18.90;67.80
16074;DHT22;8141;52.664;5.074;2023-11-21T05:41:00;18.90;67.80
16074;DHT22;8141;52.664;5.074;2023-11-21T05:43:26;19.00;67.80
16074;DHT22;8141;52.664;5.074;2023-11-21T05:45:54;18.90;68.00
16074;DHT22;8141;52.664;5.074;2023-11-21T05:48:20;18.90;67.90
16074;DHT22;8141;52.664;5.074;2023-11-21T05:50:46;19.00;67.90
16074;DHT22;8141;52.664;5.074;2023-11-21T05:53:12;18.90;67.90
16074;DHT22;8141;52.664;5.074;2023-11-21T05:55:41;19.00;67.90
16074;DHT22;8141;52.664;5.074;2023-11-21T05:58:07;18.90;67.70
16074;DHT22;8141;52.664;5.074;2023-11-21T06:00:33;19.00;67.70
16074;DHT22;8141;52.664;5.074;2023-11-21T06:02:59;19.00;67.70
16074;DHT22;8141;52.664;5.074;2023-11-21T06:05:25;19.00;67.70
16074;DHT22;8141;52.664;5.074;2023-11-21T06:07:51;19.00;67.80
16074;DHT22;8141;52.664;5.074;2023-11-21T06:10:19;19.00;67.60
16074;DHT22;8141;52.664;5.074;2023-11-21T06:12:49;19.00;67.80
16074;DHT22;8141;52.664;5.074;2023-11-21T06:15:14;19.00;68.10
16074;DHT22;8141;52.664;5.074;2023-11-21T06:17:41;19.00;68.10
16074;DHT22;8141;52.664;5.074;2023-11-21T06:20:07;19.00;68.20
16074;DHT22;8141;52.664;5.074;2023-11-21T06:22:37;19.00;68.20
16074;DHT22;8141;52.664;5.074;2023-11-21T06:25:04;19.00;68.10
16074;DHT22;8141;52.664;5.074;2023-11-21T06:27:34;19.00;68.20
16074;DHT22;8141;52.664;5.074;2023-11-21T06:30:03;19.00;68.10
16074;DHT22;8141;52.664;5.074;2023-11-21T06:32:30;19.00;68.20
16074;DHT22;8141;52.664;5.074;2023-11-21T06:34:56;19.00;68.10
16074;DHT22;8141;52.664;5.074;2023-11-21T06:37:25;19.00;68.10
16074;DHT22;8141;52.664;5.074;2023-11-21T06:39:52;19.00;68.10
16074;DHT22;8141;52.664;5.074;2023-11-21T06:42:18;19.00;68.50
16074;DHT22;8141;52.664;5.074;2023-11-21T06:44:47;19.00;68.20
16074;DHT22;8141;52.664;5.074;2023-11-21T06:47:13;19.00;68.20
16074;DHT22;8141;52.664;5.074;2023-11-21T06:49:39;19.10;68.40
16074;DHT22;8141;52.664;5.074;2023-11-21T06:52:05;19.00;68.40
16074;DHT22;8141;52.664;5.074;2023-11-21T06:54:30;19.00;68.30
16074;DHT22;8141;52.664;5.074;2023-11-21T06:56:57;19.10;68.50
16074;DHT22;8141;52.664;5.074;2023-11-21T06:59:23;19.00;68.20
16074;DHT22;8141;52.664;5.074;2023-11-21T07:01:49;19.10;68.50
16074;DHT22;8141;52.664;5.074;2023-11-21T07:04:15;19.10;68.30
16074;DHT22;8141;52.664;5.074;2023-11-21T07:06:40;19.10;68.20
16074;DHT22;8141;52.664;5.074;2023-11-21T07:09:06;19.10;68.90
16074;DHT22;8141;52.664;5.074;2023-11-21T07:11:34;19.00;68.20
16074;DHT22;8141;52.664;5.074;2023-11-21T07:14:00;18.90;67.90
16074;DHT22;8141;52.664;5.074;2023-11-21T07:16:35;18.90;68.00
16074;DHT22;8141;52.664;5.074;2023-11-21T07:19:05;18.90;67.50
16074;DHT22;8141;52.664;5.074;2023-11-21T07:21:33;18.80;67.30
16074;DHT22;8141;52.664;5.074;2023-11-21T07:24:00;18.80;67.20
16074;DHT22;8141;52.664;5.074;2023-11-21T07:26:29;18.80;66.90
16074;DHT22;8141;52.664;5.074;2023-11-21T07:28:55;18.70;66.90
16074;DHT22;8141;52.664;5.074;2023-11-21T07:31:24;18.70;66.60
16074;DHT22;8141;52.664;5.074;2023-11-21T07:33:50;18.70;66.50
16074;DHT22;8141;52.664;5.074;2023-11-21T07:36:19;18.60;66.50
16074;DHT22;8141;52.664;5.074;2023-11-21T07:38:46;18.60;66.30
16074;DHT22;8141;52.664;5.074;2023-11-21T07:41:12;18.60;66.30
16074;DHT22;8141;52.664;5.074;2023-11-21T07:43:41;18.60;66.20
16074;DHT22;8141;52.664;5.074;2023-11-21T07:46:07;18.60;66.20
16074;DHT22;8141;52.664;5.074;2023-11-21T07:48:33;18.50;66.10
16074;DHT22;8141;52.664;5.074;2023-11-21T07:50:59;18.50;65.80
16074;DHT22;8141;52.664;5.074;2023-11-21T07:53:25;18.40;65.10
16074;DHT22;8141;52.664;5.074;2023-11-21T07:55:54;18.40;65.50
16074;DHT22;8141;52.664;5.074;2023-11-21T07:58:20;18.30;65.30
16074;DHT22;8141;52.664;5.074;2023-11-21T08:00:45;18.30;65.50
16074;DHT22;8141;52.664;5.074;2023-11-21T08:03:13;18.20;65.40
16074;DHT22;8141;52.664;5.074;2023-11-21T08:05:39;18.20;65.40
16074;DHT22;8141;52.664;5.074;2023-11-21T08:08:05;18.20;65.40
16074;DHT22;8141;52.664;5.074;2023-11-21T08:10:30;18.20;65.50
16074;DHT22;8141;52.664;5.074;2023-11-21T08:12:56;18.20;65.30
16074;DHT22;8141;52.664;5.074;2023-11-21T08:15:22;18.10;65.50
16074;DHT22;8141;52.664;5.074;2023-11-21T08:17:47;18.10;65.50
16074;DHT22;8141;52.664;5.074;2023-11-21T08:20:13;18.10;65.50
16074;DHT22;8141;52.664;5.074;2023-11-21T08:22:44;18.10;65.40
16074;DHT22;8141;52.664;5.074;2023-11-21T08:25:10;18.10;65.60
16074;DHT22;8141;52.664;5.074;2023-11-21T08:27:36;18.00;65.30
16074;DHT22;8141;52.664;5.074;2023-11-21T08:30:02;18.00;65.30
16074;DHT22;8141;52.664;5.074;2023-11-21T08:32:29;18.00;65.30
16074;DHT22;8141;52.664;5.074;2023-11-21T08:34:57;18.00;65.90
16074;DHT22;8141;52.664;5.074;2023-11-21T08:37:23;17.90;65.40
16074;DHT22;8141;52.664;5.074;2023-11-21T08:39:49;17.90;65.50
16074;DHT22;8141;52.664;5.074;2023-11-21T08:42:14;17.90;65.50
16074;DHT22;8141;52.664;5.074;2023-11-21T08:44:40;17.90;65.40
16074;DHT22;8141;52.664;5.074;2023-11-21T08:47:06;18.00;65.50
16074;DHT22;8141;52.664;5.074;2023-11-21T08:49:32;17.90;65.30
16074;DHT22;8141;52.664;5.074;2023-11-21T08:51:58;17.90;65.30
16074;DHT22;8141;52.664;5.074;2023-11-21T08:54:25;17.90;65.30
16074;DHT22;8141;52.664;5.074;2023-11-21T08:56:51;17.90;65.20
16074;DHT22;8141;52.664;5.074;2023-11-21T08:59:18;17.90;65.10
16074;DHT22;8141;52.664;5.074;2023-11-21T09:01:45;17.90;65.10
16074;DHT22;8141;52.664;5.074;2023-11-21T09:04:11;17.90;65.40
16074;DHT22;8141;52.664;5.074;2023-11-21T09:06:38;17.80;65.20
16074;DHT22;8141;52.664;5.074;2023-11-21T09:09:05;17.70;65.40
16074;DHT22;8141;52.664;5.074;2023-11-21T09:11:31;17.70;65.30
16074;DHT22;8141;52.664;5.074;2023-11-21T09:13:59;17.70;65.50
16074;DHT22;8141;52.664;5.074;2023-11-21T09:16:25;17.80;65.40
16074;DHT22;8141;52.664;5.074;2023-11-21T09:18:51;17.80;65.40
16074;DHT22;8141;52.664;5.074;2023-11-21T09:21:17;17.90;65.40
16074;DHT22;8141;52.664;5.074;2023-11-21T09:23:43;17.80;65.30
16074;DHT22;8141;52.664;5.074;2023-11-21T09:26:09;17.90;65.30
16074;DHT22;8141;52.664;5.074;2023-11-21T09:28:35;17.90;65.30
16074;DHT22;8141;52.664;5.074;2023-11-21T09:31:06;17.90;65.10
16074;DHT22;8141;52.664;5.074;2023-11-21T09:33:34;17.90;65.10
16074;DHT22;8141;52.664;5.074;2023-11-21T09:36:00;17.90;65.00
16074;DHT22;8141;52.664;5.074;2023-11-21T09:38:26;17.90;65.60
16074;DHT22;8141;52.664;5.074;2023-11-21T09:40:54;17.90;65.00
16074;DHT22;8141;52.664;5.074;2023-11-21T09:43:20;17.90;65.00
16074;DHT22;8141;52.664;5.074;2023-11-21T09:45:48;17.90;65.60
16074;DHT22;8141;52.664;5.074;2023-11-21T09:48:19;17.90;65.00
16074;DHT22;8141;52.664;5.074;2023-11-21T09:50:45;17.90;64.80
16074;DHT22;8141;52.664;5.074;2023-11-21T09:53:17;17.90;64.90
16074;DHT22;8141;52.664;5.074;2023-11-21T09:55:50;17.90;64.70
16074;DHT22;8141;52.664;5.074;2023-11-21T09:58:17;17.90;64.70
16074;DHT22;8141;52.664;5.074;2023-11-21T10:00:45;17.90;64.70
16074;DHT22;8141;52.664;5.074;2023-11-21T10:03:12;17.90;64.60
16074;DHT22;8141;52.664;5.074;2023-11-21T10:05:38;17.90;64.60
16074;DHT22;8141;52.664;5.074;2023-11-21T10:08:08;17.90;64.50
16074;DHT22;8141;52.664;5.074;2023-11-21T10:10:37;17.90;64.60
16074;DHT22;8141;52.664;5.074;2023-11-21T10:13:06;17.90;64.50
16074;DHT22;8141;52.664;5.074;2023-11-21T10:15:37;17.90;64.50
16074;DHT22;8141;52.664;5.074;2023-11-21T10:18:03;17.90;64.40
16074;DHT22;8141;52.664;5.074;2023-11-21T10:20:31;17.90;64.40
16074;DHT22;8141;52.664;5.074;2023-11-21T10:22:59;17.90;64.40
16074;DHT22;8141;52.664;5.074;2023-11-21T10:25:29;17.90;64.30
16074;DHT22;8141;52.664;5.074;2023-11-21T10:27:58;17.90;64.30
16074;DHT22;8141;52.664;5.074;2023-11-21T10:30:32;17.90;64.30
16074;DHT22;8141;52.664;5.074;2023-11-21T10:32:58;17.90;64.10
16074;DHT22;8141;52.664;5.074;2023-11-21T10:35:38;17.90;64.10
16074;DHT22;8141;52.664;5.074;2023-11-21T10:38:06;17.90;64.10
16074;DHT22;8141;52.664;5.074;2023-11-21T10:40:37;17.90;64.10
16074;DHT22;8141;52.664;5.074;2023-11-21T10:43:05;17.90;63.90
16074;DHT22;8141;52.664;5.074;2023-11-21T10:45:34;18.00;64.00
16074;DHT22;8141;52.664;5.074;2023-11-21T10:48:00;17.90;63.90
16074;DHT22;8141;52.664;5.074;2023-11-21T10:50:26;18.00;64.10
16074;DHT22;8141;52.664;5.074;2023-11-21T10:52:51;17.90;64.00
16074;DHT22;8141;52.664;5.074;2023-11-21T10:55:20;17.90;63.80
16074;DHT22;8141;52.664;5.074;2023-11-21T10:57:53;17.90;63.80
16074;DHT22;8141;52.664;5.074;2023-11-21T11:00:19;17.90;63.70
16074;DHT22;8141;52.664;5.074;2023-11-21T11:02:52;17.90;63.60
16074;DHT22;8141;52.664;5.074;2023-11-21T11:05:25;17.90;63.50
16074;DHT22;8141;52.664;5.074;2023-11-21T11:08:02;17.90;63.60
16074;DHT22;8141;52.664;5.074;2023-11-21T11:10:30;17.90;63.70
16074;DHT22;8141;52.664;5.074;2023-11-21T11:12:56;17.90;63.40
16074;DHT22;8141;52.664;5.074;2023-11-21T11:15:25;17.90;63.50
16074;DHT22;8141;52.664;5.074;2023-11-21T11:17:52;17.90;63.90
16074;DHT22;8141;52.664;5.074;2023-11-21T11:20:23;17.90;63.30
16074;DHT22;8141;52.664;5.074;2023-11-21T11:22:55;17.90;63.20
16074;DHT22;8141;52.664;5.074;2023-11-21T11:25:27;17.90;63.20
16074;DHT22;8141;52.664;5.074;2023-11-21T11:31:04;17.90;63.20
16074;DHT22;8141;52.664;5.074;2023-11-21T11:37:06;17.90;63.20
16074;DHT22;8141;52.664;5.074;2023-11-21T11:39:26;17.90;63.20
16074;DHT22;8141;52.664;5.074;2023-11-21T11:41:56;17.80;63.10
16074;DHT22;8141;52.664;5.074;2023-11-21T11:47:30;17.80;63.10
16074;DHT22;8141;52.664;5.074;2023-11-21T11:50:00;17.90;63.10
16074;DHT22;8141;52.664;5.074;2023-11-21T11:52:37;17.80;63.20
16074;DHT22;8141;52.664;5.074;2023-11-21T11:55:07;17.80;62.90
16074;DHT22;8141;52.664;5.074;2023-11-21T11:57:38;17.80;63.10
16074;DHT22;8141;52.664;5.074;2023-11-21T12:02:45;17.80;62.90
16074;DHT22;8141;52.664;5.074;2023-11-21T12:05:16;17.80;62.60
16074;DHT22;8141;52.664;5.074;2023-11-21T12:07:46;17.90;62.80
16074;DHT22;8141;52.664;5.074;2023-11-21T12:10:13;17.80;62.60
16074;DHT22;8141;52.664;5.074;2023-11-21T12:13:22;17.80;62.80
16074;DHT22;8141;52.664;5.074;2023-11-21T12:15:33;17.80;62.70
16074;DHT22;8141;52.664;5.074;2023-11-21T12:18:00;17.80;63.00
16074;DHT22;8141;52.664;5.074;2023-11-21T12:20:26;17.80;62.80
16074;DHT22;8141;52.664;5.074;2023-11-21T12:22:53;17.80;62.60
16074;DHT22;8141;52.664;5.074;2023-11-21T12:25:21;17.80;62.70
16074;DHT22;8141;52.664;5.074;2023-11-21T12:27:51;17.80;62.60
16074;DHT22;8141;52.664;5.074;2023-11-21T12:30:18;17.80;62.70
16074;DHT22;8141;52.664;5.074;2023-11-21T12:32:47;17.80;63.40
16074;DHT22;8141;52.664;5.074;2023-11-21T12:35:13;17.80;62.50
16074;DHT22;8141;52.664;5.074;2023-11-21T12:37:40;17.80;62.30
16074;DHT22;8141;52.664;5.074;2023-11-21T12:40:08;17.80;62.00
16074;DHT22;8141;52.664;5.074;2023-11-21T12:42:44;17.70;62.50
16074;DHT22;8141;52.664;5.074;2023-11-21T12:47:43;17.70;62.20
16074;DHT22;8141;52.664;5.074;2023-11-21T12:50:09;17.80;62.20
16074;DHT22;8141;52.664;5.074;2023-11-21T12:52:41;17.80;62.40
16074;DHT22;8141;52.664;5.074;2023-11-21T12:55:13;17.80;62.20
16074;DHT22;8141;52.664;5.074;2023-11-21T12:57:42;17.80;62.10
16074;DHT22;8141;52.664;5.074;2023-11-21T13:00:13;17.80;62.00
16074;DHT22;8141;52.664;5.074;2023-11-21T13:02:52;17.80;62.30
16074;DHT22;8141;52.664;5.074;2023-11-21T13:05:23;17.70;61.90
16074;DHT22;8141;52.664;5.074;2023-11-21T13:07:59;17.80;62.10
16074;DHT22;8141;52.664;5.074;2023-11-21T13:10:28;17.80;62.00
16074;DHT22;8141;52.664;5.074;2023-11-21T13:12:59;17.80;61.70
16074;DHT22;8141;52.664;5.074;2023-11-21T13:15:29;17.70;61.30
16074;DHT22;8141;52.664;5.074;2023-11-21T13:17:57;17.70;61.80
16074;DHT22;8141;52.664;5.074;2023-11-21T13:20:23;17.70;61.50
16074;DHT22;8141;52.664;5.074;2023-11-21T13:22:58;17.70;61.50
16074;DHT22;8141;52.664;5.074;2023-11-21T13:25:24;17.70;61.80
16074;DHT22;8141;52.664;5.074;2023-11-21T13:27:56;17.70;61.60
16074;DHT22;8141;52.664;5.074;2023-11-21T13:30:23;17.70;61.60
16074;DHT22;8141;52.664;5.074;2023-11-21T13:32:53;17.70;61.30
16074;DHT22;8141;52.664;5.074;2023-11-21T13:35:22;17.70;61.40
16074;DHT22;8141;52.664;5.074;2023-11-21T13:37:56;17.70;61.00
16074;DHT22;8141;52.664;5.074;2023-11-21T13:40:25;17.70;61.20
16074;DHT22;8141;52.664;5.074;2023-11-21T13:42:52;17.70;61.00
16074;DHT22;8141;52.664;5.074;2023-11-21T13:45:22;17.60;61.10
16074;DHT22;8141;52.664;5.074;2023-11-21T13:47:51;17.70;61.30
16074;DHT22;8141;52.664;5.074;2023-11-21T13:50:20;17.70;61.30
16074;DHT22;8141;52.664;5.074;2023-11-21T13:52:50;17.70;61.40
16074;DHT22;8141;52.664;5.074;2023-11-21T13:55:19;17.70;61.20
16074;DHT22;8141;52.664;5.074;2023-11-21T13:57:47;17.70;61.40
16074;DHT22;8141;52.664;5.074;2023-11-21T14:00:17;17.70;61.10
16074;DHT22;8141;52.664;5.074;2023-11-21T14:03:01;17.70;61.40
16074;DHT22;8141;52.664;5.074;2023-11-21T14:05:27;17.70;60.60
16074;DHT22;8141;52.664;5.074;2023-11-21T14:07:57;17.70;60.70
16074;DHT22;8141;52.664;5.074;2023-11-21T14:10:30;17.70;61.30
16074;DHT22;8141;52.664;5.074;2023-11-21T14:13:05;17.70;61.00
16074;DHT22;8141;52.664;5.074;2023-11-21T14:15:31;17.70;61.30
16074;DHT22;8141;52.664;5.074;2023-11-21T14:18:02;17.70;61.20
16074;DHT22;8141;52.664;5.074;2023-11-21T14:20:33;17.60;61.10
16074;DHT22;8141;52.664;5.074;2023-11-21T14:23:01;17.70;61.00
16074;DHT22;8141;52.664;5.074;2023-11-21T14:25:27;17.60;61.10
16074;DHT22;8141;52.664;5.074;2023-11-21T14:27:53;17.70;61.30
16074;DHT22;8141;52.664;5.074;2023-11-21T14:30:19;17.70;60.90
16074;DHT22;8141;52.664;5.074;2023-11-21T14:32:47;17.70;61.00
16074;DHT22;8141;52.664;5.074;2023-11-21T14:35:13;17.60;60.60
16074;DHT22;8141;52.664;5.074;2023-11-21T14:37:39;17.60;61.10
16074;DHT22;8141;52.664;5.074;2023-11-21T14:40:05;17.60;60.90
16074;DHT22;8141;52.664;5.074;2023-11-21T14:42:33;17.60;60.00
16074;DHT22;8141;52.664;5.074;2023-11-21T14:44:59;17.60;60.60
16074;DHT22;8141;52.664;5.074;2023-11-21T14:47:29;17.60;60.60
16074;DHT22;8141;52.664;5.074;2023-11-21T14:49:54;17.60;60.70
16074;DHT22;8141;52.664;5.074;2023-11-21T14:52:22;17.60;60.70
16074;DHT22;8141;52.664;5.074;2023-11-21T14:55:00;17.60;60.90
16074;DHT22;8141;52.664;5.074;2023-11-21T14:57:45;17.60;60.40
16074;DHT22;8141;52.664;5.074;2023-11-21T15:00:15;17.60;60.80
16074;DHT22;8141;52.664;5.074;2023-11-21T15:03:03;17.60;60.90
16074;DHT22;8141;52.664;5.074;2023-11-21T15:05:29;17.60;60.70
16074;DHT22;8141;52.664;5.074;2023-11-21T15:07:56;17.60;60.40
16074;DHT22;8141;52.664;5.074;2023-11-21T15:10:33;17.60;61.10
16074;DHT22;8141;52.664;5.074;2023-11-21T15:13:12;17.60;60.70
16074;DHT22;8141;52.664;5.074;2023-11-21T15:15:39;17.60;60.40
16074;DHT22;8141;52.664;5.074;2023-11-21T15:18:05;17.60;60.80
16074;DHT22;8141;52.664;5.074;2023-11-21T15:20:32;17.70;60.50
16074;DHT22;8141;52.664;5.074;2023-11-21T15:22:58;17.70;60.50
16074;DHT22;8141;52.664;5.074;2023-11-21T15:25:23;17.60;59.40
16074;DHT22;8141;52.664;5.074;2023-11-21T15:27:49;17.60;60.30
16074;DHT22;8141;52.664;5.074;2023-11-21T15:30:15;17.60;59.80
16074;DHT22;8141;52.664;5.074;2023-11-21T15:32:45;17.50;60.30
16074;DHT22;8141;52.664;5.074;2023-11-21T15:35:11;17.60;60.20
16074;DHT22;8141;52.664;5.074;2023-11-21T15:37:40;17.60;60.00
16074;DHT22;8141;52.664;5.074;2023-11-21T15:40:06;17.60;59.90
16074;DHT22;8141;52.664;5.074;2023-11-21T15:42:34;17.60;59.90
16074;DHT22;8141;52.664;5.074;2023-11-21T15:45:01;17.60;60.00
16074;DHT22;8141;52.664;5.074;2023-11-21T15:47:27;17.70;62.80
16074;DHT22;8141;52.664;5.074;2023-11-21T15:49:52;17.80;63.50
16074;DHT22;8141;52.664;5.074;2023-11-21T15:52:18;17.90;63.00
16074;DHT22;8141;52.664;5.074;2023-11-21T15:54:44;17.90;62.70
16074;DHT22;8141;52.664;5.074;2023-11-21T15:57:11;18.00;62.40
16074;DHT22;8141;52.664;5.074;2023-11-21T15:59:39;18.00;62.20
16074;DHT22;8141;52.664;5.074;2023-11-21T16:02:07;18.00;62.10